createdAt,value
2022-12-25T00:02:02.991Z,7.53
2022-12-25T00:04:30.906Z,8.30
2022-12-25T00:06:59.587Z,10.60
2022-12-25T00:09:27.513Z,9.63
2022-12-25T00:11:56.811Z,13.60
2022-12-25T00:14:24.700Z,11.37
2022-12-25T00:16:52.588Z,15.37
2022-12-25T00:19:20.468Z,14.60
2022-12-25T00:21:48.359Z,10.57
2022-12-25T00:24:16.239Z,13.43
2022-12-25T00:26:44.142Z,10.90
2022-12-25T00:29:13.984Z,7.17
2022-12-25T00:31:41.932Z,5.90
2022-12-25T00:34:09.872Z,4.80
2022-12-25T00:36:41.913Z,6.30
2022-12-25T00:39:10.086Z,5.03
2022-12-25T00:41:51.840Z,5.50
2022-12-25T00:44:21.127Z,5.20
2022-12-25T00:46:49.064Z,5.13
2022-12-25T00:49:17.269Z,4.60
2022-12-25T00:51:45.242Z,4.43
2022-12-25T00:54:13.169Z,5.53
2022-12-25T00:56:41.109Z,4.40
2022-12-25T00:59:09.190Z,4.73
2022-12-25T01:01:39.428Z,4.40
2022-12-25T01:04:08.805Z,4.30
2022-12-25T01:06:36.800Z,4.90
2022-12-25T01:09:22.326Z,3.77
2022-12-25T01:11:50.230Z,4.20
2022-12-25T01:14:18.144Z,5.00
2022-12-25T01:16:47.502Z,5.33
2022-12-25T01:19:15.447Z,5.10
2022-12-25T01:21:43.425Z,5.30
2022-12-25T01:24:11.326Z,6.00
2022-12-25T01:26:39.242Z,8.40
2022-12-25T01:29:07.150Z,10.00
2022-12-25T01:31:35.191Z,8.20
2022-12-25T01:34:04.462Z,5.20
2022-12-25T01:36:32.389Z,4.83
2022-12-25T01:39:00.260Z,4.00
2022-12-25T01:41:28.198Z,4.07
2022-12-25T01:44:02.124Z,7.20
2022-12-25T01:46:30.668Z,6.13
2022-12-25T01:49:00.429Z,4.30
2022-12-25T01:51:32.590Z,5.30
2022-12-25T01:54:02.137Z,6.87
2022-12-25T01:56:30.474Z,6.43
2022-12-25T01:58:59.115Z,6.70
2022-12-25T02:01:27.235Z,6.40
2022-12-25T02:03:57.944Z,5.57
2022-12-25T02:06:26.629Z,5.57
2022-12-25T02:08:55.900Z,4.80
2022-12-25T02:11:37.658Z,5.47
2022-12-25T02:14:05.613Z,4.70
2022-12-25T02:16:57.428Z,4.90
2022-12-25T02:19:33.373Z,5.27
2022-12-25T02:22:07.408Z,5.97
2022-12-25T02:24:54.439Z,5.93
2022-12-25T02:27:48.509Z,6.10
2022-12-25T02:30:16.517Z,5.73
2022-12-25T02:32:47.508Z,5.47
2022-12-25T02:35:18.278Z,6.97
2022-12-25T02:37:52.898Z,5.97
2022-12-25T02:40:23.523Z,5.60
2022-12-25T02:43:14.821Z,5.43
2022-12-25T02:46:05.326Z,4.80
2022-12-25T02:48:53.211Z,4.10
2022-12-25T02:51:41.894Z,5.33
2022-12-25T02:54:31.542Z,4.73
2022-12-25T02:57:18.592Z,6.00
2022-12-25T03:00:09.459Z,5.40
2022-12-25T03:02:55.177Z,25.97
2022-12-25T03:05:42.911Z,16.30
2022-12-25T03:08:14.369Z,14.67
2022-12-25T03:11:04.179Z,10.27
2022-12-25T03:13:37.739Z,8.73
2022-12-25T03:16:25.025Z,7.97
2022-12-25T03:18:54.861Z,5.70
2022-12-25T03:21:40.515Z,6.70
2022-12-25T03:24:26.240Z,5.17
2022-12-25T03:26:57.375Z,3.87
2022-12-25T03:29:43.555Z,3.67
2022-12-25T03:32:20.490Z,4.73
2022-12-25T03:35:12.563Z,2.70
2022-12-25T03:38:09.854Z,2.87
2022-12-25T03:41:01.400Z,4.17
2022-12-25T03:43:49.446Z,5.70
2022-12-25T03:46:36.640Z,6.30
2022-12-25T03:49:27.654Z,6.37
2022-12-25T03:52:13.533Z,7.77
2022-12-25T03:55:00.281Z,7.53
2022-12-25T03:57:45.427Z,5.03
2022-12-25T04:00:28.031Z,4.13
2022-12-25T04:03:13.428Z,4.50
2022-12-25T04:06:00.033Z,4.67
2022-12-25T04:08:45.237Z,2.70
2022-12-25T04:11:30.599Z,5.40
2022-12-25T04:14:15.780Z,4.67
2022-12-25T04:17:01.199Z,5.60
2022-12-25T04:19:46.436Z,6.47
2022-12-25T04:22:32.920Z,3.50
2022-12-25T04:25:18.153Z,3.60
2022-12-25T04:28:03.291Z,4.50
2022-12-25T04:30:48.614Z,4.10
2022-12-25T04:33:33.896Z,3.47
2022-12-25T04:36:10.484Z,3.07
2022-12-25T04:38:41.008Z,4.90
2022-12-25T04:41:09.296Z,5.37
2022-12-25T04:43:37.245Z,5.70
2022-12-25T04:46:05.938Z,5.97
2022-12-25T04:48:36.019Z,6.37
2022-12-25T04:51:17.683Z,5.20
2022-12-25T04:53:47.994Z,3.47
2022-12-25T04:56:16.350Z,6.13
2022-12-25T04:58:45.132Z,6.50
2022-12-25T05:01:13.404Z,5.60
2022-12-25T05:03:42.094Z,5.10
2022-12-25T05:06:10.120Z,4.30
2022-12-25T05:08:38.492Z,4.83
2022-12-25T05:11:09.004Z,7.00
2022-12-25T05:13:37.179Z,6.03
2022-12-25T05:16:09.207Z,13.77
2022-12-25T05:18:37.251Z,6.67
2022-12-25T05:21:05.877Z,6.60
2022-12-25T05:23:33.774Z,6.43
2022-12-25T05:26:05.527Z,5.10
2022-12-25T05:28:35.100Z,4.93
2022-12-25T05:31:03.277Z,5.27
2022-12-25T05:33:31.290Z,5.93
2022-12-25T05:35:59.872Z,4.30
2022-12-25T05:38:27.766Z,5.73
2022-12-25T05:40:55.639Z,5.13
2022-12-25T05:43:24.008Z,4.80
2022-12-25T05:45:53.262Z,8.83
2022-12-25T05:48:21.198Z,7.30
2022-12-25T05:50:49.101Z,7.60
2022-12-25T05:53:18.411Z,7.00
2022-12-25T05:55:46.270Z,5.50
2022-12-25T05:58:14.602Z,14.60
2022-12-25T06:00:44.833Z,8.30
2022-12-25T06:03:14.178Z,8.20
2022-12-25T06:05:42.131Z,14.40
2022-12-25T06:08:10.027Z,4.73
2022-12-25T06:10:38.014Z,4.07
2022-12-25T06:13:05.922Z,3.90
2022-12-25T06:15:33.854Z,3.80
2022-12-25T06:18:01.858Z,3.13
2022-12-25T06:20:31.292Z,3.40
2022-12-25T06:22:59.209Z,9.27
2022-12-25T06:25:27.237Z,11.00
2022-12-25T06:27:55.126Z,8.57
2022-12-25T06:30:23.030Z,12.70
2022-12-25T06:32:50.962Z,9.53
2022-12-25T06:35:18.860Z,12.23
2022-12-25T06:37:48.133Z,10.90
2022-12-25T06:40:16.100Z,6.10
2022-12-25T06:42:44.014Z,4.20
2022-12-25T06:45:12.540Z,4.43
2022-12-25T06:47:40.978Z,4.10
2022-12-25T06:50:14.572Z,6.37
2022-12-25T06:52:45.976Z,4.70
2022-12-25T06:55:15.443Z,4.20
2022-12-25T06:57:43.337Z,4.70
2022-12-25T07:00:12.841Z,3.97
2022-12-25T07:02:48.222Z,4.73
2022-12-25T07:05:19.288Z,6.30
2022-12-25T07:07:48.072Z,5.70
2022-12-25T07:10:18.559Z,15.53
2022-12-25T07:12:59.520Z,8.00
2022-12-25T07:15:41.513Z,8.40
2022-12-25T07:18:09.731Z,6.60
2022-12-25T07:20:37.907Z,6.37
2022-12-25T07:23:06.422Z,6.80
2022-12-25T07:25:37.923Z,6.57
2022-12-25T07:28:06.710Z,11.73
2022-12-25T07:30:40.620Z,10.23
2022-12-25T07:33:11.950Z,19.83
2022-12-25T07:35:41.651Z,7.20
2022-12-25T07:38:12.364Z,15.67
2022-12-25T07:40:47.770Z,13.93
2022-12-25T07:43:25.829Z,14.07
2022-12-25T07:46:06.532Z,11.70
2022-12-25T07:48:44.855Z,13.40
2022-12-25T07:51:16.329Z,27.13
2022-12-25T07:53:45.280Z,7.90
2022-12-25T07:56:19.167Z,8.10
2022-12-25T07:58:48.357Z,7.10
2022-12-25T08:01:20.217Z,5.90
2022-12-25T08:03:51.006Z,7.37
2022-12-25T08:06:21.273Z,8.80
2022-12-25T08:09:09.443Z,8.53
2022-12-25T08:11:39.427Z,7.70
2022-12-25T08:14:07.909Z,15.80
2022-12-25T08:16:39.953Z,7.50
2022-12-25T08:19:10.516Z,8.20
2022-12-25T08:21:38.591Z,9.60
2022-12-25T08:24:06.895Z,6.43
2022-12-25T08:26:34.794Z,6.37
2022-12-25T08:29:04.157Z,6.50
2022-12-25T08:31:34.213Z,4.73
2022-12-25T08:34:03.708Z,5.20
2022-12-25T08:36:31.915Z,5.60
2022-12-25T08:39:03.072Z,5.20
2022-12-25T08:41:31.434Z,4.23
2022-12-25T08:44:00.033Z,4.33
2022-12-25T08:46:29.425Z,4.27
2022-12-25T08:48:57.575Z,3.63
2022-12-25T08:51:27.358Z,6.10
2022-12-25T08:53:59.899Z,11.70
2022-12-25T08:56:28.930Z,8.47
2022-12-25T08:58:56.857Z,11.57
2022-12-25T09:01:24.859Z,6.30
2022-12-25T09:03:54.223Z,4.57
2022-12-25T09:06:22.189Z,3.00
2022-12-25T09:08:50.188Z,3.77
2022-12-25T09:11:19.405Z,2.80
2022-12-25T09:13:47.667Z,3.27
2022-12-25T09:16:17.347Z,3.10
2022-12-25T09:18:45.340Z,3.10
2022-12-25T09:21:16.407Z,3.03
2022-12-25T09:23:44.505Z,5.13
2022-12-25T09:26:14.898Z,4.83
2022-12-25T09:28:50.733Z,5.47
2022-12-25T09:31:19.969Z,5.27
2022-12-25T09:33:48.250Z,6.87
2022-12-25T09:36:17.790Z,3.60
2022-12-25T09:38:45.677Z,3.37
2022-12-25T09:41:17.597Z,3.70
2022-12-25T09:43:49.019Z,3.30
2022-12-25T09:46:19.513Z,2.70
2022-12-25T09:48:55.699Z,2.57
2022-12-25T09:51:26.002Z,2.80
2022-12-25T09:53:59.753Z,2.90
2022-12-25T09:56:27.751Z,2.43
2022-12-25T09:58:55.864Z,2.33
2022-12-25T10:01:31.719Z,3.67
2022-12-25T10:04:12.662Z,3.10
2022-12-25T10:06:48.732Z,2.30
2022-12-25T10:09:36.335Z,1.80
2022-12-25T10:12:17.626Z,3.23
2022-12-25T10:14:54.396Z,1.83
2022-12-25T10:17:35.511Z,3.33
2022-12-25T10:20:12.172Z,6.17
2022-12-25T10:22:43.953Z,3.43
2022-12-25T10:25:17.543Z,3.80
2022-12-25T10:27:46.772Z,2.40
2022-12-25T10:30:17.376Z,2.40
2022-12-25T10:32:48.109Z,2.23
2022-12-25T10:35:17.457Z,2.00
2022-12-25T10:37:50.209Z,1.73
2022-12-25T10:40:29.292Z,3.00
2022-12-25T10:43:01.729Z,3.37
2022-12-25T10:45:29.957Z,3.13
2022-12-25T10:48:07.505Z,2.50
2022-12-25T10:50:44.593Z,2.13
2022-12-25T10:53:25.481Z,1.60
2022-12-25T10:55:58.741Z,2.43
2022-12-25T10:58:27.202Z,2.23
2022-12-25T11:00:58.109Z,2.97
2022-12-25T11:03:28.056Z,2.10
2022-12-25T11:05:56.341Z,1.97
2022-12-25T11:08:26.689Z,2.23
2022-12-25T11:10:56.811Z,3.67
2022-12-25T11:13:27.342Z,3.87
2022-12-25T11:16:09.472Z,2.50
2022-12-25T11:18:46.430Z,2.00
2022-12-25T11:21:17.590Z,2.47
2022-12-25T11:23:48.401Z,1.90
2022-12-25T11:26:17.158Z,1.63
2022-12-25T11:28:46.618Z,2.10
2022-12-25T11:31:16.393Z,1.40
2022-12-25T11:33:48.912Z,2.27
2022-12-25T11:36:21.717Z,1.87
2022-12-25T11:38:51.967Z,2.87
2022-12-25T11:41:23.316Z,2.67
2022-12-25T11:43:54.665Z,3.90
2022-12-25T11:46:25.843Z,2.10
2022-12-25T11:48:56.370Z,1.70
2022-12-25T11:51:27.321Z,1.70
2022-12-25T11:53:57.967Z,1.93
2022-12-25T11:56:28.133Z,1.80
2022-12-25T11:58:58.722Z,1.43
2022-12-25T12:01:35.890Z,1.53
2022-12-25T12:04:15.407Z,1.50
2022-12-25T12:06:49.176Z,1.60
2022-12-25T12:09:27.776Z,1.80
2022-12-25T12:11:59.937Z,1.70
2022-12-25T12:14:37.708Z,1.50
2022-12-25T12:17:05.890Z,1.93
2022-12-25T12:19:34.776Z,1.90
2022-12-25T12:22:05.251Z,2.23
2022-12-25T12:24:38.591Z,2.13
2022-12-25T12:27:08.189Z,6.03
2022-12-25T12:29:40.889Z,24.13
2022-12-25T12:32:26.516Z,6.03
2022-12-25T12:34:54.531Z,27.90
2022-12-25T12:37:28.592Z,3.10
2022-12-25T12:39:57.942Z,16.67
2022-12-25T12:42:27.990Z,12.17
2022-12-25T12:44:57.053Z,3.87
2022-12-25T12:47:31.329Z,19.30
2022-12-25T12:50:00.900Z,12.50
2022-12-25T12:52:34.107Z,7.00
2022-12-25T12:55:05.450Z,2.20
2022-12-25T12:57:39.272Z,2.17
2022-12-25T13:00:34.571Z,1.00
2022-12-25T13:03:20.112Z,1.93
2022-12-25T13:05:51.423Z,2.20
2022-12-25T13:08:30.438Z,2.40
2022-12-25T13:11:08.557Z,2.27
2022-12-25T13:13:38.257Z,1.87
2022-12-25T13:16:07.221Z,1.60
2022-12-25T13:18:35.275Z,1.60
2022-12-25T13:21:05.517Z,3.30
2022-12-25T13:23:35.975Z,1.13
2022-12-25T13:26:07.260Z,2.13
2022-12-25T13:28:37.162Z,2.10
2022-12-25T13:31:07.259Z,1.43
2022-12-25T13:33:35.915Z,1.90
2022-12-25T13:36:04.316Z,1.90
2022-12-25T13:38:32.402Z,1.20
2022-12-25T13:41:18.135Z,2.13
2022-12-25T13:43:49.775Z,2.53
2022-12-25T13:46:17.721Z,1.83
2022-12-25T13:48:45.646Z,1.80
2022-12-25T13:51:17.069Z,1.80
2022-12-25T13:53:45.326Z,2.00
2022-12-25T13:56:15.651Z,2.10
2022-12-25T13:58:43.793Z,3.57
2022-12-25T14:01:17.167Z,3.50
2022-12-25T14:03:47.182Z,3.40
2022-12-25T14:06:20.702Z,8.40
2022-12-25T14:08:49.647Z,12.87
2022-12-25T14:11:20.546Z,11.10
2022-12-25T14:13:50.067Z,7.73
2022-12-25T14:16:20.014Z,15.50
2022-12-25T14:18:56.114Z,22.83
2022-12-25T14:21:27.966Z,8.90
2022-12-25T14:23:56.034Z,9.30
2022-12-25T14:26:27.871Z,9.20
2022-12-25T14:28:59.036Z,7.00
2022-12-25T14:31:29.789Z,6.00
2022-12-25T14:33:59.276Z,5.80
2022-12-25T14:36:27.486Z,5.70
2022-12-25T14:38:59.566Z,6.53
2022-12-25T14:41:37.872Z,5.30
2022-12-25T14:44:08.117Z,5.10
2022-12-25T14:46:37.575Z,11.97
2022-12-25T14:49:07.188Z,10.20
2022-12-25T14:51:38.997Z,7.90
2022-12-25T14:54:16.203Z,6.70
2022-12-25T14:56:48.117Z,11.20
2022-12-25T14:59:18.550Z,7.13
2022-12-25T15:01:52.445Z,6.17
2022-12-25T15:04:22.326Z,5.80
2022-12-25T15:06:54.755Z,6.10
2022-12-25T15:09:23.102Z,7.30
2022-12-25T15:11:51.461Z,6.80
2022-12-25T15:14:19.556Z,7.47
2022-12-25T15:16:50.848Z,8.43
2022-12-25T15:19:25.746Z,8.10
2022-12-25T15:21:55.346Z,10.60
2022-12-25T15:24:23.274Z,7.90
2022-12-25T15:26:53.219Z,7.20
2022-12-25T15:29:44.768Z,8.30
2022-12-25T15:32:17.026Z,8.97
2022-12-25T15:34:47.075Z,9.77
2022-12-25T15:37:15.602Z,8.20
2022-12-25T15:39:43.807Z,6.40
2022-12-25T15:42:13.712Z,5.53
2022-12-25T15:44:42.323Z,5.90
2022-12-25T15:47:12.359Z,7.13
2022-12-25T15:49:40.317Z,6.20
2022-12-25T15:52:09.159Z,5.43
2022-12-25T15:54:37.134Z,5.70
2022-12-25T15:57:06.370Z,8.00
2022-12-25T15:59:34.617Z,7.20
2022-12-25T16:02:03.317Z,7.30
2022-12-25T16:04:32.638Z,10.33
2022-12-25T16:07:00.887Z,9.57
2022-12-25T16:09:28.753Z,9.40
2022-12-25T16:11:56.707Z,7.70
2022-12-25T16:14:24.610Z,7.20
2022-12-25T16:16:52.521Z,6.30
2022-12-25T16:19:20.476Z,9.97
2022-12-25T16:21:50.128Z,6.87
2022-12-25T16:24:18.106Z,5.50
2022-12-25T16:26:46.011Z,6.87
2022-12-25T16:29:14.093Z,16.17
2022-12-25T16:31:42.355Z,13.03
2022-12-25T16:34:10.698Z,12.57
2022-12-25T16:36:39.054Z,7.27
2022-12-25T16:39:09.578Z,7.50
2022-12-25T16:41:37.601Z,5.17
2022-12-25T16:44:09.471Z,7.70
2022-12-25T16:46:38.077Z,12.80
2022-12-25T16:49:06.350Z,8.63
2022-12-25T16:51:34.448Z,9.20
2022-12-25T16:54:02.425Z,4.03
2022-12-25T16:56:32.448Z,5.70
2022-12-25T16:59:01.091Z,8.27
2022-12-25T17:01:29.263Z,9.90
2022-12-25T17:04:01.431Z,10.33
2022-12-25T17:06:29.861Z,11.20
2022-12-25T17:08:59.639Z,8.73
2022-12-25T17:11:30.036Z,9.80
2022-12-25T17:14:02.167Z,7.30
2022-12-25T17:16:31.976Z,7.77
2022-12-25T17:19:02.234Z,6.93
2022-12-25T17:21:30.448Z,6.73
2022-12-25T17:24:03.093Z,6.23
2022-12-25T17:26:32.095Z,5.00
2022-12-25T17:29:01.677Z,6.00
2022-12-25T17:31:29.858Z,6.73
2022-12-25T17:33:57.871Z,5.17
2022-12-25T17:36:25.905Z,6.10
2022-12-25T17:38:54.310Z,5.70
2022-12-25T17:41:22.759Z,4.70
2022-12-25T17:43:50.666Z,6.07
2022-12-25T17:46:21.619Z,7.70
2022-12-25T17:48:50.425Z,9.37
2022-12-25T17:51:19.967Z,10.07
2022-12-25T17:53:53.320Z,10.50
2022-12-25T17:56:21.949Z,4.80
2022-12-25T17:58:52.171Z,6.97
2022-12-25T18:01:22.434Z,6.53
2022-12-25T18:03:51.020Z,5.30
2022-12-25T18:06:21.091Z,5.80
2022-12-25T18:08:49.401Z,8.00
2022-12-25T18:11:19.017Z,8.47
2022-12-25T18:13:49.956Z,9.43
2022-12-25T18:16:18.708Z,11.10
2022-12-25T18:18:51.892Z,14.30
2022-12-25T18:21:21.521Z,10.90
2022-12-25T18:23:53.900Z,14.37
2022-12-25T18:26:21.968Z,12.50
2022-12-25T18:28:50.158Z,6.67
2022-12-25T18:31:19.640Z,7.93
2022-12-25T18:33:49.088Z,6.80
2022-12-25T18:36:20.099Z,10.47
2022-12-25T18:38:48.192Z,11.27
2022-12-25T18:41:16.605Z,12.20
2022-12-25T18:43:52.919Z,28.50
2022-12-25T18:46:24.432Z,22.07
2022-12-25T18:48:54.181Z,12.80
2022-12-25T18:51:22.368Z,19.07
2022-12-25T18:53:51.063Z,24.43
2022-12-25T18:56:19.479Z,18.50
2022-12-25T18:58:47.812Z,12.67
2022-12-25T19:01:17.260Z,10.37
2022-12-25T19:03:46.158Z,10.17
2022-12-25T19:06:19.503Z,12.37
2022-12-25T19:08:47.582Z,11.33
2022-12-25T19:11:16.113Z,8.90
2022-12-25T19:13:44.731Z,8.90
2022-12-25T19:16:13.110Z,10.60
2022-12-25T19:18:41.405Z,14.87
2022-12-25T19:21:10.125Z,16.40
2022-12-25T19:23:39.865Z,13.53
2022-12-25T19:26:08.403Z,13.47
2022-12-25T19:28:36.688Z,18.40
2022-12-25T19:31:07.469Z,16.90
2022-12-25T19:33:36.101Z,16.47
2022-12-25T19:36:05.076Z,16.00
2022-12-25T19:38:33.525Z,16.10
2022-12-25T19:41:06.914Z,15.57
2022-12-25T19:43:37.414Z,12.03
2022-12-25T19:46:05.975Z,13.53
2022-12-25T19:48:35.236Z,9.93
2022-12-25T19:51:03.187Z,12.30
2022-12-25T19:53:32.106Z,12.43
2022-12-25T19:56:04.133Z,15.17
2022-12-25T19:58:32.038Z,17.37
2022-12-25T20:01:00.612Z,16.57
2022-12-25T20:03:28.837Z,14.07
2022-12-25T20:05:57.005Z,14.50
2022-12-25T20:08:25.266Z,13.30
2022-12-25T20:10:53.243Z,14.23
2022-12-25T20:13:22.699Z,16.47
2022-12-25T20:15:50.800Z,16.50
2022-12-25T20:18:18.979Z,15.23
2022-12-25T20:20:46.872Z,20.50
2022-12-25T20:23:14.822Z,16.27
2022-12-25T20:25:43.288Z,18.53
2022-12-25T20:28:11.203Z,19.00
2022-12-25T20:30:41.236Z,19.50
2022-12-25T20:33:10.078Z,13.77
2022-12-25T20:35:38.112Z,14.47
2022-12-25T20:38:06.043Z,14.30
2022-12-25T20:40:52.973Z,17.93
2022-12-25T20:43:21.826Z,20.40
2022-12-25T20:45:52.845Z,20.20
2022-12-25T20:48:20.745Z,13.33
2022-12-25T20:50:48.654Z,15.60
2022-12-25T20:53:16.653Z,19.00
2022-12-25T20:55:46.500Z,18.20
2022-12-25T20:58:14.692Z,22.60
2022-12-25T21:00:42.932Z,14.50
2022-12-25T21:03:12.741Z,13.37
2022-12-25T21:05:49.807Z,14.40
2022-12-25T21:08:18.050Z,18.17
2022-12-25T21:10:50.368Z,15.10
2022-12-25T21:13:18.925Z,7.40
2022-12-25T21:15:47.268Z,7.03
2022-12-25T21:18:19.448Z,16.17
2022-12-25T21:20:49.042Z,12.27
2022-12-25T21:23:17.374Z,10.70
2022-12-25T21:25:45.487Z,19.37
2022-12-25T21:28:13.600Z,13.07
2022-12-25T21:30:41.813Z,12.80
2022-12-25T21:33:28.953Z,13.93
2022-12-25T21:35:58.505Z,13.37
2022-12-25T21:38:26.372Z,15.53
2022-12-25T21:40:54.260Z,13.73
2022-12-25T21:43:22.169Z,12.40
2022-12-25T21:45:50.088Z,12.50
2022-12-25T21:48:18.049Z,11.50
2022-12-25T21:51:03.520Z,12.77
2022-12-25T21:53:32.815Z,9.40
2022-12-25T21:56:02.458Z,6.80
2022-12-25T21:58:30.437Z,6.87
2022-12-25T22:01:03.091Z,6.77
2022-12-25T22:03:31.072Z,7.67
2022-12-25T22:06:21.293Z,7.80
2022-12-25T22:08:51.005Z,12.67
2022-12-25T22:11:36.229Z,30.10
2022-12-25T22:14:50.238Z,17.80
2022-12-25T22:17:27.570Z,11.60
2022-12-25T22:19:55.532Z,9.53
2022-12-25T22:22:25.311Z,6.43
2022-12-25T22:24:55.834Z,5.97
2022-12-25T22:27:24.456Z,5.37
2022-12-25T22:29:53.038Z,5.30
2022-12-25T22:32:21.361Z,5.83
2022-12-25T22:34:49.258Z,5.80
2022-12-25T22:37:18.856Z,10.80
2022-12-25T22:39:46.938Z,11.00
2022-12-25T22:42:16.948Z,8.97
2022-12-25T22:44:44.905Z,9.40
2022-12-25T22:47:12.975Z,9.10
2022-12-25T22:49:40.867Z,11.20
2022-12-25T22:52:09.854Z,8.40
2022-12-25T22:54:38.436Z,8.70
2022-12-25T22:57:06.599Z,9.80
2022-12-25T22:59:35.904Z,7.03
2022-12-25T23:02:03.986Z,4.50
2022-12-25T23:04:31.912Z,7.20
2022-12-25T23:06:59.832Z,10.83
2022-12-25T23:09:28.514Z,12.57
2022-12-25T23:11:56.957Z,13.63
2022-12-25T23:14:39.093Z,14.40
2022-12-25T23:17:29.761Z,6.23
2022-12-25T23:20:21.064Z,5.10
2022-12-25T23:23:06.311Z,5.50
2022-12-25T23:25:53.184Z,6.53
2022-12-25T23:28:35.228Z,4.60
2022-12-25T23:31:03.188Z,3.30
2022-12-25T23:33:32.655Z,3.57
2022-12-25T23:36:00.580Z,3.00
2022-12-25T23:38:28.580Z,4.50
2022-12-25T23:40:56.506Z,5.43
2022-12-25T23:43:24.427Z,12.00
2022-12-25T23:45:52.312Z,12.47
2022-12-25T23:48:20.222Z,7.90
2022-12-25T23:50:49.501Z,6.20
2022-12-25T23:53:17.531Z,3.60
2022-12-25T23:55:50.066Z,6.20
2022-12-25T23:58:21.366Z,6.10
